PWSweather.com
Personal Weather Stations
Station Observations
133525
French Quarters West Seneca , West Seneca, NY 14224

French Quarters West Seneca West Seneca, NY 14224

Lat: 42.850058, Lon: -78.799754

Elevation: 603

Station Type: Davis Vantage Vue pro2

http://westsenecaweather.com/

Latest ConditionsUpdated 9:15:01 PM EDT Monday, Mar 25, 2019
Currently Today's Max Today's Min Today's Average
Temperature 32.1°F0.1°C 39.7°F4.3°C 29.9°F-1.2°C 35.0°F1.7°C
Dew Point 6.2°F-14.3°C 30.5°F-0.8°C 3.3°F-15.9°C 16.0°F-8.9°C
Winds 2.3 mph SE3.7 kmh SE 9.2 mph -14.8 kmh - - 4.9 mph 7.9 kmh
Wind Gusts 2.3 mph3.7 kmh 13.8 mph22.2 kmh - -
Humidity 33% 83% 23% 50%
Pressure 30.21 in1023.0 mb 30.25 in1024.4 mb 30.11 in1019.6 mb -
Hour Temp Dew Point Humidity Winds Wind Gusts Pressure Precip Precip Rate Daily Precip Total
09:15 PM 32.1°F0.1°C 6.2°F-14.3°C 33% 2.3 mph SE3.7 kmh SE 2.3 mph3.7 kmh 30.21 in1023.0 mb - 0.00 in0.0 mm 0.00 in0.0 mm
09:10 PM 31.8°F-0.1°C 6.6°F-14.1°C 34% 3.5 mph SE5.6 kmh SE 3.5 mph5.6 kmh 30.21 in1023.0 mb - 0.00 in0.0 mm 0.00 in0.0 mm
09:00 PM 31.8°F-0.1°C 5.9°F-14.5°C 33% 2.3 mph SE3.7 kmh SE 3.5 mph5.6 kmh 30.20 in1022.7 mb - 0.00 in0.0 mm 0.00 in0.0 mm
08:55 PM 32.0°F0.0°C 6.8°F-14.0°C 34% 1.2 mph SE1.9 kmh SE 1.2 mph1.9 kmh 30.20 in1022.7 mb - 0.00 in0.0 mm 0.00 in0.0 mm
08:50 PM 32.1°F0.1°C 5.5°F-14.7°C 32% 1.2 mph SE1.9 kmh SE 2.3 mph3.7 kmh 30.20 in1022.7 mb - 0.00 in0.0 mm 0.00 in0.0 mm
08:45 PM 32.1°F0.1°C 6.2°F-14.3°C 33% 1.2 mph SE1.9 kmh SE 2.3 mph3.7 kmh 30.20 in1022.7 mb - 0.00 in0.0 mm 0.00 in0.0 mm
08:40 PM 32.1°F0.1°C 6.2°F-14.3°C 33% Calm Calm 2.3 mph3.7 kmh 30.20 in1022.7 mb - 0.00 in0.0 mm 0.00 in0.0 mm
08:35 PM 32.3°F0.2°C 6.4°F-14.2°C 33% Calm Calm -- 30.20 in1022.7 mb - 0.00 in0.0 mm 0.00 in0.0 mm
08:30 PM 32.7°F0.4°C 6.7°F-14.1°C 33% Calm Calm -- 30.20 in1022.7 mb - 0.00 in0.0 mm 0.00 in0.0 mm
08:25 PM 33.0°F0.6°C 5.6°F-14.7°C 31% Calm Calm -- 30.19 in1022.4 mb - 0.00 in0.0 mm 0.00 in0.0 mm
08:20 PM 33.2°F0.7°C 6.5°F-14.2°C 32% Calm Calm -- 30.19 in1022.4 mb - 0.00 in0.0 mm 0.00 in0.0 mm
08:15 PM 33.4°F0.8°C 5.2°F-14.9°C 30% 1.2 mph SE1.9 kmh SE 1.2 mph1.9 kmh 30.19 in1022.4 mb - 0.00 in0.0 mm 0.00 in0.0 mm
08:10 PM 33.5°F0.8°C 5.3°F-14.8°C 30% 1.2 mph SE1.9 kmh SE 2.3 mph3.7 kmh 30.19 in1022.4 mb - 0.00 in0.0 mm 0.00 in0.0 mm
08:00 PM 33.8°F1.0°C 5.6°F-14.7°C 30% 2.3 mph SE3.7 kmh SE 3.5 mph5.6 kmh 30.19 in1022.4 mb - 0.00 in0.0 mm 0.00 in0.0 mm
07:55 PM 34.2°F1.2°C 5.2°F-14.9°C 29% 2.3 mph SE3.7 kmh SE 3.5 mph5.6 kmh 30.19 in1022.4 mb - 0.00 in0.0 mm 0.00 in0.0 mm
07:50 PM 34.4°F1.3°C 5.4°F-14.8°C 29% 1.2 mph SE1.9 kmh SE 2.3 mph3.7 kmh 30.19 in1022.4 mb - 0.00 in0.0 mm 0.00 in0.0 mm
07:45 PM 34.6°F1.4°C 4.8°F-15.1°C 28% 2.3 mph E3.7 kmh E 3.5 mph5.6 kmh 30.19 in1022.4 mb - 0.00 in0.0 mm 0.00 in0.0 mm
07:40 PM 34.8°F1.6°C 5.0°F-15.0°C 28% 2.3 mph E3.7 kmh E 3.5 mph5.6 kmh 30.19 in1022.4 mb - 0.00 in0.0 mm 0.00 in0.0 mm
07:35 PM 35.1°F1.7°C 5.2°F-14.9°C 28% 2.3 mph SE3.7 kmh SE 4.6 mph7.4 kmh 30.19 in1022.4 mb - 0.00 in0.0 mm 0.00 in0.0 mm
07:30 PM 35.2°F1.8°C 5.3°F-14.8°C 28% 2.3 mph E3.7 kmh E 3.5 mph5.6 kmh 30.19 in1022.4 mb - 0.00 in0.0 mm 0.00 in0.0 mm
07:25 PM 35.5°F1.9°C 4.7°F-15.2°C 27% 2.3 mph E3.7 kmh E 3.5 mph5.6 kmh 30.19 in1022.4 mb - 0.00 in0.0 mm 0.00 in0.0 mm
07:20 PM 35.6°F2.0°C 4.8°F-15.1°C 27% 2.3 mph E3.7 kmh E 3.5 mph5.6 kmh 30.19 in1022.4 mb - 0.00 in0.0 mm 0.00 in0.0 mm
07:15 PM 35.9°F2.2°C 5.1°F-14.9°C 27% 3.5 mph E5.6 kmh E 5.8 mph9.3 kmh 30.19 in1022.4 mb - 0.00 in0.0 mm 0.00 in0.0 mm
07:10 PM 36.1°F2.3°C 5.3°F-14.8°C 27% 1.2 mph SE1.9 kmh SE 3.5 mph5.6 kmh 30.19 in1022.4 mb - 0.00 in0.0 mm 0.00 in0.0 mm
07:00 PM 36.4°F2.4°C 4.7°F-15.2°C 26% 2.3 mph E3.7 kmh E 3.5 mph5.6 kmh 30.18 in1022.0 mb - 0.00 in0.0 mm 0.00 in0.0 mm
06:55 PM 36.6°F2.6°C 4.9°F-15.1°C 26% 3.5 mph SE5.6 kmh SE 3.5 mph5.6 kmh 30.18 in1022.0 mb - 0.00 in0.0 mm 0.00 in0.0 mm
06:50 PM 36.8°F2.7°C 3.3°F-15.9°C 24% 2.3 mph ESE3.7 kmh ESE 5.8 mph9.3 kmh 30.18 in1022.0 mb - 0.00 in0.0 mm 0.00 in0.0 mm
06:45 PM 36.9°F2.7°C 3.4°F-15.9°C 24% 2.3 mph ESE3.7 kmh ESE 3.5 mph5.6 kmh 30.18 in1022.0 mb - 0.00 in0.0 mm 0.00 in0.0 mm
06:40 PM 37.2°F2.9°C 4.5°F-15.3°C 25% 3.5 mph E5.6 kmh E 8.1 mph13.0 kmh 30.18 in1022.0 mb - 0.00 in0.0 mm 0.00 in0.0 mm
06:35 PM 37.4°F3.0°C 4.7°F-15.2°C 25% 3.5 mph E5.6 kmh E 5.8 mph9.3 kmh 30.18 in1022.0 mb - 0.00 in0.0 mm 0.00 in0.0 mm
06:30 PM 37.4°F3.0°C 5.6°F-14.7°C 26% 3.5 mph E5.6 kmh E 4.6 mph7.4 kmh 30.18 in1022.0 mb - 0.00 in0.0 mm 0.00 in0.0 mm
06:25 PM 37.5°F3.1°C 3.9°F-15.6°C 24% 4.6 mph E7.4 kmh E 5.8 mph9.3 kmh 30.18 in1022.0 mb - 0.00 in0.0 mm 0.00 in0.0 mm
06:20 PM 37.9°F3.3°C 5.1°F-14.9°C 25% 4.6 mph E7.4 kmh E 10.4 mph16.7 kmh 30.18 in1022.0 mb - 0.00 in0.0 mm 0.00 in0.0 mm
06:15 PM 37.8°F3.2°C 6.7°F-14.1°C 27% 4.6 mph E7.4 kmh E 8.1 mph13.0 kmh 30.18 in1022.0 mb - 0.00 in0.0 mm 0.00 in0.0 mm
06:10 PM 37.5°F3.1°C 4.8°F-15.1°C 25% 4.6 mph ESE7.4 kmh ESE 6.9 mph11.1 kmh 30.18 in1022.0 mb - 0.00 in0.0 mm 0.00 in0.0 mm
06:00 PM 37.7°F3.2°C 5.0°F-15.0°C 25% 5.8 mph E9.3 kmh E 6.9 mph11.1 kmh 30.18 in1022.0 mb - 0.00 in0.0 mm 0.00 in0.0 mm
05:55 PM 37.8°F3.2°C 5.0°F-15.0°C 25% 2.3 mph SE3.7 kmh SE 3.5 mph5.6 kmh 30.18 in1022.0 mb - 0.00 in0.0 mm 0.00 in0.0 mm
05:50 PM 37.9°F3.3°C 5.1°F-14.9°C 25% 5.8 mph ENE9.3 kmh ENE 9.2 mph14.8 kmh 30.18 in1022.0 mb - 0.00 in0.0 mm 0.00 in0.0 mm
05:45 PM 37.9°F3.3°C 4.3°F-15.4°C 24% 5.8 mph SE9.3 kmh SE 10.4 mph16.7 kmh 30.18 in1022.0 mb - 0.00 in0.0 mm 0.00 in0.0 mm
05:40 PM 37.9°F3.3°C 4.3°F-15.4°C 24% 2.3 mph E3.7 kmh E 8.1 mph13.0 kmh 30.18 in1022.0 mb - 0.00 in0.0 mm 0.00 in0.0 mm
05:35 PM 37.8°F3.2°C 4.2°F-15.4°C 24% 3.5 mph SE5.6 kmh SE 3.5 mph5.6 kmh 30.18 in1022.0 mb - 0.00 in0.0 mm 0.00 in0.0 mm
05:30 PM 37.8°F3.2°C 4.2°F-15.4°C 24% 5.8 mph ESE9.3 kmh ESE 10.4 mph16.7 kmh 30.18 in1022.0 mb - 0.00 in0.0 mm 0.00 in0.0 mm
05:25 PM 37.8°F3.2°C 4.2°F-15.4°C 24% 5.8 mph SE9.3 kmh SE 10.4 mph16.7 kmh 30.18 in1022.0 mb - 0.00 in0.0 mm 0.00 in0.0 mm
05:20 PM 38.0°F3.3°C 5.2°F-14.9°C 25% 6.9 mph ESE11.1 kmh ESE 8.1 mph13.0 kmh 30.18 in1022.0 mb - 0.00 in0.0 mm 0.00 in0.0 mm
05:15 PM 38.3°F3.5°C 4.6°F-15.2°C 24% 9.2 mph ESE14.8 kmh ESE 8.1 mph13.0 kmh 30.18 in1022.0 mb - 0.00 in0.0 mm 0.00 in0.0 mm
05:10 PM 38.5°F3.6°C 4.7°F-15.2°C 24% 4.6 mph SE7.4 kmh SE 5.8 mph9.3 kmh 30.18 in1022.0 mb - 0.00 in0.0 mm 0.00 in0.0 mm
05:00 PM 38.7°F3.7°C 5.8°F-14.6°C 25% 6.9 mph E11.1 kmh E 11.5 mph18.5 kmh 30.17 in1021.7 mb - 0.00 in0.0 mm 0.00 in0.0 mm
04:55 PM 38.8°F3.8°C 6.8°F-14.0°C 26% 4.6 mph SE7.4 kmh SE 11.5 mph18.5 kmh 30.17 in1021.7 mb - 0.00 in0.0 mm 0.00 in0.0 mm
04:50 PM 38.9°F3.8°C 5.1°F-14.9°C 24% 5.8 mph ESE9.3 kmh ESE 6.9 mph11.1 kmh 30.17 in1021.7 mb - 0.00 in0.0 mm 0.00 in0.0 mm
04:45 PM 38.9°F3.8°C 4.2°F-15.4°C 23% 6.9 mph ESE11.1 kmh ESE 5.8 mph9.3 kmh 30.17 in1021.7 mb - 0.00 in0.0 mm 0.00 in0.0 mm
04:40 PM 38.8°F3.8°C 4.1°F-15.5°C 23% 4.6 mph SE7.4 kmh SE 5.8 mph9.3 kmh 30.17 in1021.7 mb - 0.00 in0.0 mm 0.00 in0.0 mm
04:35 PM 39.3°F4.1°C 5.5°F-14.7°C 24% 6.9 mph SE11.1 kmh SE 10.4 mph16.7 kmh 30.17 in1021.7 mb - 0.00 in0.0 mm 0.00 in0.0 mm
04:30 PM 39.1°F3.9°C 6.2°F-14.3°C 25% 6.9 mph SSE11.1 kmh SSE 9.2 mph14.8 kmh 30.17 in1021.7 mb - 0.00 in0.0 mm 0.00 in0.0 mm
04:25 PM 39.2°F4.0°C 6.3°F-14.3°C 25% 6.9 mph SE11.1 kmh SE 9.2 mph14.8 kmh 30.17 in1021.7 mb - 0.00 in0.0 mm 0.00 in0.0 mm
04:20 PM 39.2°F4.0°C 6.3°F-14.3°C 25% 5.8 mph S9.3 kmh S 5.8 mph9.3 kmh 30.17 in1021.7 mb - 0.00 in0.0 mm 0.00 in0.0 mm
04:15 PM 39.6°F4.2°C 6.6°F-14.1°C 25% 6.9 mph SE11.1 kmh SE 12.7 mph20.4 kmh 30.17 in1021.7 mb - 0.00 in0.0 mm 0.00 in0.0 mm
04:10 PM 39.2°F4.0°C 6.3°F-14.3°C 25% 6.9 mph SE11.1 kmh SE 9.2 mph14.8 kmh 30.18 in1022.0 mb - 0.00 in0.0 mm 0.00 in0.0 mm
04:00 PM 39.5°F4.2°C 5.6°F-14.7°C 24% 6.9 mph SE11.1 kmh SE 11.5 mph18.5 kmh 30.18 in1022.0 mb - 0.00 in0.0 mm 0.00 in0.0 mm
03:55 PM 39.7°F4.3°C 7.5°F-13.6°C 26% 4.6 mph S7.4 kmh S 8.1 mph13.0 kmh 30.18 in1022.0 mb - 0.00 in0.0 mm 0.00 in0.0 mm
03:50 PM 39.2°F4.0°C 7.1°F-13.8°C 26% 5.8 mph SSE9.3 kmh SSE 6.9 mph11.1 kmh 30.18 in1022.0 mb - 0.00 in0.0 mm 0.00 in0.0 mm
03:45 PM 39.3°F4.1°C 7.2°F-13.8°C 26% 5.8 mph ESE9.3 kmh ESE 9.2 mph14.8 kmh 30.18 in1022.0 mb - 0.00 in0.0 mm 0.00 in0.0 mm
03:40 PM 38.8°F3.8°C 7.7°F-13.5°C 27% 3.5 mph ESE5.6 kmh ESE 10.4 mph16.7 kmh 30.18 in1022.0 mb - 0.00 in0.0 mm 0.00 in0.0 mm
03:35 PM 39.1°F3.9°C 7.0°F-13.9°C 26% 5.8 mph ESE9.3 kmh ESE 9.2 mph14.8 kmh 30.19 in1022.4 mb - 0.00 in0.0 mm 0.00 in0.0 mm
03:30 PM 39.3°F4.1°C 7.2°F-13.8°C 26% 4.6 mph SE7.4 kmh SE 6.9 mph11.1 kmh 30.18 in1022.0 mb - 0.00 in0.0 mm 0.00 in0.0 mm
03:25 PM 39.5°F4.2°C 9.0°F-12.8°C 28% 5.8 mph ESE9.3 kmh ESE 9.2 mph14.8 kmh 30.18 in1022.0 mb - 0.00 in0.0 mm 0.00 in0.0 mm
03:20 PM 39.2°F4.0°C 8.8°F-12.9°C 28% 4.6 mph SSE7.4 kmh SSE 6.9 mph11.1 kmh 30.18 in1022.0 mb - 0.00 in0.0 mm 0.00 in0.0 mm
03:15 PM 39.5°F4.2°C 9.0°F-12.8°C 28% 6.9 mph SE11.1 kmh SE 12.7 mph20.4 kmh 30.19 in1022.4 mb - 0.00 in0.0 mm 0.00 in0.0 mm
03:10 PM 39.4°F4.1°C 9.7°F-12.4°C 29% 6.9 mph SE11.1 kmh SE 11.5 mph18.5 kmh 30.19 in1022.4 mb - 0.00 in0.0 mm 0.00 in0.0 mm
03:00 PM 39.7°F4.3°C 10.7°F-11.8°C 30% 6.9 mph SE11.1 kmh SE 12.7 mph20.4 kmh 30.19 in1022.4 mb - 0.00 in0.0 mm 0.00 in0.0 mm
02:55 PM 39.3°F4.1°C 10.4°F-12.0°C 30% 4.6 mph SSE7.4 kmh SSE 6.9 mph11.1 kmh 30.19 in1022.4 mb - 0.00 in0.0 mm 0.00 in0.0 mm
02:50 PM 39.1°F3.9°C 11.0°F-11.7°C 31% 6.9 mph SE11.1 kmh SE 10.4 mph16.7 kmh 30.19 in1022.4 mb - 0.00 in0.0 mm 0.00 in0.0 mm
02:45 PM 38.9°F3.8°C 11.5°F-11.4°C 32% 2.3 mph S3.7 kmh S 3.5 mph5.6 kmh 30.19 in1022.4 mb - 0.00 in0.0 mm 0.00 in0.0 mm
02:40 PM 39.4°F4.1°C 12.6°F-10.8°C 33% 6.9 mph S11.1 kmh S 6.9 mph11.1 kmh 30.19 in1022.4 mb - 0.00 in0.0 mm 0.00 in0.0 mm
02:35 PM 39.2°F4.0°C 12.5°F-10.8°C 33% 5.8 mph S9.3 kmh S 6.9 mph11.1 kmh 30.19 in1022.4 mb - 0.00 in0.0 mm 0.00 in0.0 mm
02:30 PM 38.8°F3.8°C 12.1°F-11.1°C 33% 2.3 mph N3.7 kmh N 3.5 mph5.6 kmh 30.20 in1022.7 mb - 0.00 in0.0 mm 0.00 in0.0 mm
02:25 PM 39.0°F3.9°C 11.6°F-11.3°C 32% 6.9 mph E11.1 kmh E 8.1 mph13.0 kmh 30.20 in1022.7 mb - 0.00 in0.0 mm 0.00 in0.0 mm
02:20 PM 39.2°F4.0°C 11.8°F-11.2°C 32% 6.9 mph SE11.1 kmh SE 11.5 mph18.5 kmh 30.20 in1022.7 mb - 0.00 in0.0 mm 0.00 in0.0 mm
02:15 PM 38.6°F3.7°C 11.3°F-11.5°C 32% 5.8 mph E9.3 kmh E 6.9 mph11.1 kmh 30.20 in1022.7 mb - 0.00 in0.0 mm 0.00 in0.0 mm
02:10 PM 38.4°F3.6°C 11.8°F-11.2°C 33% 8.1 mph E13.0 kmh E 11.5 mph18.5 kmh 30.20 in1022.7 mb - 0.00 in0.0 mm 0.00 in0.0 mm
02:00 PM 38.6°F3.7°C 13.3°F-10.4°C 35% 6.9 mph SSE11.1 kmh SSE 6.9 mph11.1 kmh 30.20 in1022.7 mb - 0.00 in0.0 mm 0.00 in0.0 mm
01:55 PM 39.0°F3.9°C 14.2°F-9.9°C 36% 1.2 mph SW1.9 kmh SW 5.8 mph9.3 kmh 30.20 in1022.7 mb - 0.00 in0.0 mm 0.00 in0.0 mm
01:50 PM 38.7°F3.7°C 14.6°F-9.7°C 37% 6.9 mph SW11.1 kmh SW 11.5 mph18.5 kmh 30.20 in1022.7 mb - 0.00 in0.0 mm 0.00 in0.0 mm
01:45 PM 38.1°F3.4°C 12.2°F-11.0°C 34% 5.8 mph ENE9.3 kmh ENE 6.9 mph11.1 kmh 30.20 in1022.7 mb - 0.00 in0.0 mm 0.00 in0.0 mm
01:40 PM 38.6°F3.7°C 12.6°F-10.8°C 34% 5.8 mph ENE9.3 kmh ENE 8.1 mph13.0 kmh 30.20 in1022.7 mb - 0.00 in0.0 mm 0.00 in0.0 mm
01:35 PM 38.7°F3.7°C 13.3°F-10.4°C 35% 3.5 mph SE5.6 kmh SE 8.1 mph13.0 kmh 30.20 in1022.7 mb - 0.00 in0.0 mm 0.00 in0.0 mm
01:30 PM 37.9°F3.3°C 11.3°F-11.5°C 33% 4.6 mph SSW7.4 kmh SSW 6.9 mph11.1 kmh 30.20 in1022.7 mb - 0.00 in0.0 mm 0.00 in0.0 mm
01:25 PM 38.2°F3.4°C 12.9°F-10.6°C 35% 8.1 mph SSE13.0 kmh SSE 11.5 mph18.5 kmh 30.21 in1023.0 mb - 0.00 in0.0 mm 0.00 in0.0 mm
01:20 PM 37.9°F3.3°C 12.7°F-10.7°C 35% 4.6 mph E7.4 kmh E 8.1 mph13.0 kmh 30.21 in1023.0 mb - 0.00 in0.0 mm 0.00 in0.0 mm
01:15 PM 37.9°F3.3°C 13.3°F-10.4°C 36% 6.9 mph E11.1 kmh E 9.2 mph14.8 kmh 30.21 in1023.0 mb - 0.00 in0.0 mm 0.00 in0.0 mm
01:10 PM 38.0°F3.3°C 13.4°F-10.3°C 36% 3.5 mph S5.6 kmh S 6.9 mph11.1 kmh 30.21 in1023.0 mb - 0.00 in0.0 mm 0.00 in0.0 mm
01:00 PM 38.3°F3.5°C 14.8°F-9.6°C 38% 5.8 mph S9.3 kmh S 9.2 mph14.8 kmh 30.21 in1023.0 mb - 0.00 in0.0 mm 0.00 in0.0 mm
12:55 PM 38.0°F3.3°C 14.6°F-9.7°C 38% 5.8 mph SE9.3 kmh SE 8.1 mph13.0 kmh 30.21 in1023.0 mb - 0.00 in0.0 mm 0.00 in0.0 mm
12:50 PM 37.8°F3.2°C 15.6°F-9.1°C 40% 4.6 mph SSW7.4 kmh SSW 6.9 mph11.1 kmh 30.21 in1023.0 mb - 0.00 in0.0 mm 0.00 in0.0 mm
12:45 PM 37.1°F2.8°C 13.8°F-10.1°C 38% 3.5 mph SSW5.6 kmh SSW 4.6 mph7.4 kmh 30.21 in1023.0 mb - 0.00 in0.0 mm 0.00 in0.0 mm
12:40 PM 37.3°F2.9°C 15.2°F-9.3°C 40% 4.6 mph SSW7.4 kmh SSW 9.2 mph14.8 kmh 30.21 in1023.0 mb - 0.00 in0.0 mm 0.00 in0.0 mm
12:35 PM 37.3°F2.9°C 14.6°F-9.7°C 39% 5.8 mph S9.3 kmh S 11.5 mph18.5 kmh 30.21 in1023.0 mb - 0.00 in0.0 mm 0.00 in0.0 mm
12:30 PM 37.8°F3.2°C 15.6°F-9.1°C 40% 5.8 mph SSE9.3 kmh SSE 6.9 mph11.1 kmh 30.21 in1023.0 mb - 0.00 in0.0 mm 0.00 in0.0 mm
12:25 PM 37.5°F3.1°C 14.2°F-9.9°C 38% 3.5 mph E5.6 kmh E 6.9 mph11.1 kmh 30.21 in1023.0 mb - 0.00 in0.0 mm 0.00 in0.0 mm
12:20 PM 37.0°F2.8°C 15.4°F-9.2°C 41% 5.8 mph S9.3 kmh S 6.9 mph11.1 kmh 30.22 in1023.4 mb - 0.00 in0.0 mm 0.00 in0.0 mm
12:15 PM 36.0°F2.2°C 14.0°F-10.0°C 40% 4.6 mph E7.4 kmh E 8.1 mph13.0 kmh 30.21 in1023.0 mb - 0.00 in0.0 mm 0.00 in0.0 mm
12:10 PM 35.9°F2.2°C 14.5°F-9.7°C 41% 3.5 mph SE5.6 kmh SE 4.6 mph7.4 kmh 30.22 in1023.4 mb - 0.00 in0.0 mm 0.00 in0.0 mm
12:00 PM 36.1°F2.3°C 12.9°F-10.6°C 38% 6.9 mph SSW11.1 kmh SSW 9.2 mph14.8 kmh 30.22 in1023.4 mb - 0.00 in0.0 mm 0.00 in0.0 mm
11:55 AM 36.1°F2.3°C 12.9°F-10.6°C 38% 4.6 mph SSE7.4 kmh SSE 6.9 mph11.1 kmh 30.22 in1023.4 mb - 0.00 in0.0 mm 0.00 in0.0 mm
11:50 AM 36.3°F2.4°C 14.3°F-9.8°C 40% 3.5 mph SW5.6 kmh SW 3.5 mph5.6 kmh 30.23 in1023.7 mb - 0.00 in0.0 mm 0.00 in0.0 mm
11:45 AM 36.3°F2.4°C 14.3°F-9.8°C 40% 4.6 mph SSW7.4 kmh SSW 6.9 mph11.1 kmh 30.23 in1023.7 mb - 0.00 in0.0 mm 0.00 in0.0 mm
11:40 AM 36.5°F2.5°C 14.4°F-9.8°C 40% 2.3 mph SE3.7 kmh SE 6.9 mph11.1 kmh 30.23 in1023.7 mb - 0.00 in0.0 mm 0.00 in0.0 mm
11:35 AM 36.0°F2.2°C 13.4°F-10.3°C 39% 3.5 mph SW5.6 kmh SW 3.5 mph5.6 kmh 30.23 in1023.7 mb - 0.00 in0.0 mm 0.00 in0.0 mm
11:30 AM 35.3°F1.8°C 13.9°F-10.1°C 41% 2.3 mph SSE3.7 kmh SSE 5.8 mph9.3 kmh 30.23 in1023.7 mb - 0.00 in0.0 mm 0.00 in0.0 mm
11:25 AM 35.5°F1.9°C 13.6°F-10.2°C 40% 3.5 mph SSW5.6 kmh SSW 4.6 mph7.4 kmh 30.23 in1023.7 mb - 0.00 in0.0 mm 0.00 in0.0 mm
11:20 AM 35.5°F1.9°C 14.1°F-9.9°C 41% 5.8 mph S9.3 kmh S 8.1 mph13.0 kmh 30.23 in1023.7 mb - 0.00 in0.0 mm 0.00 in0.0 mm
11:15 AM 35.6°F2.0°C 13.6°F-10.2°C 40% 6.9 mph SSE11.1 kmh SSE 9.2 mph14.8 kmh 30.23 in1023.7 mb - 0.00 in0.0 mm 0.00 in0.0 mm
11:10 AM 35.0°F1.7°C 13.6°F-10.2°C 41% 3.5 mph S5.6 kmh S 6.9 mph11.1 kmh 30.23 in1023.7 mb - 0.00 in0.0 mm 0.00 in0.0 mm
11:00 AM 34.9°F1.6°C 12.4°F-10.9°C 39% 5.8 mph S9.3 kmh S 8.1 mph13.0 kmh 30.24 in1024.0 mb - 0.00 in0.0 mm 0.00 in0.0 mm
10:55 AM 34.7°F1.5°C 12.8°F-10.7°C 40% 4.6 mph SSW7.4 kmh SSW 9.2 mph14.8 kmh 30.24 in1024.0 mb - 0.00 in0.0 mm 0.00 in0.0 mm
10:50 AM 34.6°F1.4°C 11.6°F-11.3°C 38% 4.6 mph E7.4 kmh E 5.8 mph9.3 kmh 30.24 in1024.0 mb - 0.00 in0.0 mm 0.00 in0.0 mm
10:45 AM 34.7°F1.5°C 12.2°F-11.0°C 39% 4.6 mph S7.4 kmh S 5.8 mph9.3 kmh 30.24 in1024.0 mb - 0.00 in0.0 mm 0.00 in0.0 mm
10:40 AM 34.5°F1.4°C 12.0°F-11.1°C 39% 5.8 mph SSW9.3 kmh SSW 10.4 mph16.7 kmh 30.24 in1024.0 mb - 0.00 in0.0 mm 0.00 in0.0 mm
10:35 AM 33.9°F1.1°C 10.9°F-11.7°C 38% 3.5 mph S5.6 kmh S 3.5 mph5.6 kmh 30.24 in1024.0 mb - 0.00 in0.0 mm 0.00 in0.0 mm
10:30 AM 33.7°F0.9°C 10.7°F-11.8°C 38% 5.8 mph SSE9.3 kmh SSE 11.5 mph18.5 kmh 30.24 in1024.0 mb - 0.00 in0.0 mm 0.00 in0.0 mm
10:25 AM 33.8°F1.0°C 11.4°F-11.4°C 39% 4.6 mph S7.4 kmh S 4.6 mph7.4 kmh 30.24 in1024.0 mb - 0.00 in0.0 mm 0.00 in0.0 mm
10:20 AM 33.7°F0.9°C 10.1°F-12.2°C 37% 6.9 mph SSW11.1 kmh SSW 11.5 mph18.5 kmh 30.25 in1024.4 mb - 0.00 in0.0 mm 0.00 in0.0 mm
10:15 AM 33.6°F0.9°C 10.0°F-12.2°C 37% 5.8 mph SSW9.3 kmh SSW 8.1 mph13.0 kmh 30.24 in1024.0 mb - 0.00 in0.0 mm 0.00 in0.0 mm
10:10 AM 33.5°F0.8°C 10.6°F-11.9°C 38% 5.8 mph S9.3 kmh S 10.4 mph16.7 kmh 30.24 in1024.0 mb - 0.00 in0.0 mm 0.00 in0.0 mm
10:00 AM 33.4°F0.8°C 10.5°F-11.9°C 38% 6.9 mph SSE11.1 kmh SSE 8.1 mph13.0 kmh 30.24 in1024.0 mb - 0.00 in0.0 mm 0.00 in0.0 mm
09:55 AM 33.2°F0.7°C 10.3°F-12.1°C 38% 3.5 mph S5.6 kmh S 8.1 mph13.0 kmh 30.24 in1024.0 mb - 0.00 in0.0 mm 0.00 in0.0 mm
09:50 AM 33.1°F0.6°C 10.8°F-11.8°C 39% 5.8 mph SSE9.3 kmh SSE 11.5 mph18.5 kmh 30.24 in1024.0 mb - 0.00 in0.0 mm 0.00 in0.0 mm
09:45 AM 33.1°F0.6°C 10.2°F-12.1°C 38% 5.8 mph S9.3 kmh S 6.9 mph11.1 kmh 30.24 in1024.0 mb - 0.00 in0.0 mm 0.00 in0.0 mm
09:40 AM 33.1°F0.6°C 9.6°F-12.4°C 37% 6.9 mph SSW11.1 kmh SSW 11.5 mph18.5 kmh 30.24 in1024.0 mb - 0.00 in0.0 mm 0.00 in0.0 mm
09:35 AM 33.2°F0.7°C 10.3°F-12.1°C 38% 5.8 mph S9.3 kmh S 12.7 mph20.4 kmh 30.24 in1024.0 mb - 0.00 in0.0 mm 0.00 in0.0 mm
09:30 AM 32.9°F0.5°C 9.4°F-12.6°C 37% 8.1 mph S13.0 kmh S 9.2 mph14.8 kmh 30.23 in1023.7 mb - 0.00 in0.0 mm 0.00 in0.0 mm
09:25 AM 32.9°F0.5°C 10.6°F-11.9°C 39% 6.9 mph S11.1 kmh S 11.5 mph18.5 kmh 30.23 in1023.7 mb - 0.00 in0.0 mm 0.00 in0.0 mm
09:20 AM 33.1°F0.6°C 10.2°F-12.1°C 38% 8.1 mph SW13.0 kmh SW 11.5 mph18.5 kmh 30.23 in1023.7 mb - 0.00 in0.0 mm 0.00 in0.0 mm
09:15 AM 32.9°F0.5°C 11.2°F-11.6°C 40% 5.8 mph SSW9.3 kmh SSW 8.1 mph13.0 kmh 30.23 in1023.7 mb - 0.00 in0.0 mm 0.00 in0.0 mm
09:10 AM 32.5°F0.3°C 11.9°F-11.2°C 42% 3.5 mph SSW5.6 kmh SSW 6.9 mph11.1 kmh 30.23 in1023.7 mb - 0.00 in0.0 mm 0.00 in0.0 mm
09:00 AM 31.8°F-0.1°C 11.8°F-11.2°C 43% 6.9 mph SSE11.1 kmh SSE 9.2 mph14.8 kmh 30.22 in1023.4 mb - 0.00 in0.0 mm 0.00 in0.0 mm
08:55 AM 31.7°F-0.2°C 11.7°F-11.3°C 43% 6.9 mph S11.1 kmh S 9.2 mph14.8 kmh 30.22 in1023.4 mb - 0.00 in0.0 mm 0.00 in0.0 mm
08:50 AM 31.7°F-0.2°C 11.7°F-11.3°C 43% 5.8 mph SSW9.3 kmh SSW 8.1 mph13.0 kmh 30.21 in1023.0 mb - 0.00 in0.0 mm 0.00 in0.0 mm
08:45 AM 31.6°F-0.2°C 12.7°F-10.7°C 45% 9.2 mph S14.8 kmh S 11.5 mph18.5 kmh 30.21 in1023.0 mb - 0.00 in0.0 mm 0.00 in0.0 mm
08:40 AM 31.6°F-0.2°C 13.1°F-10.5°C 46% 5.8 mph S9.3 kmh S 11.5 mph18.5 kmh 30.22 in1023.4 mb - 0.00 in0.0 mm 0.00 in0.0 mm
08:35 AM 31.3°F-0.4°C 13.9°F-10.1°C 48% 5.8 mph SSW9.3 kmh SSW 8.1 mph13.0 kmh 30.21 in1023.0 mb - 0.00 in0.0 mm 0.00 in0.0 mm
08:30 AM 31.2°F-0.4°C 14.7°F-9.6°C 50% 4.6 mph S7.4 kmh S 10.4 mph16.7 kmh 30.21 in1023.0 mb - 0.00 in0.0 mm 0.00 in0.0 mm
08:25 AM 31.1°F-0.5°C 15.1°F-9.4°C 51% 6.9 mph S11.1 kmh S 11.5 mph18.5 kmh 30.21 in1023.0 mb - 0.00 in0.0 mm 0.00 in0.0 mm
08:20 AM 30.9°F-0.6°C 14.9°F-9.5°C 51% 4.6 mph SSW7.4 kmh SSW 6.9 mph11.1 kmh 30.21 in1023.0 mb - 0.00 in0.0 mm 0.00 in0.0 mm
08:15 AM 30.8°F-0.7°C 15.7°F-9.1°C 53% 5.8 mph S9.3 kmh S 9.2 mph14.8 kmh 30.21 in1023.0 mb - 0.00 in0.0 mm 0.00 in0.0 mm
08:10 AM 30.7°F-0.7°C 16.0°F-8.9°C 54% 4.6 mph S7.4 kmh S 11.5 mph18.5 kmh 30.21 in1023.0 mb - 0.00 in0.0 mm 0.00 in0.0 mm
08:00 AM 30.5°F-0.8°C 16.2°F-8.8°C 55% 4.6 mph S7.4 kmh S 8.1 mph13.0 kmh 30.21 in1023.0 mb - 0.00 in0.0 mm 0.00 in0.0 mm
07:55 AM 30.4°F-0.9°C 16.1°F-8.8°C 55% 5.8 mph S9.3 kmh S 9.2 mph14.8 kmh 30.21 in1023.0 mb - 0.00 in0.0 mm 0.00 in0.0 mm
07:50 AM 30.2°F-1.0°C 16.4°F-8.7°C 56% 4.6 mph S7.4 kmh S 8.1 mph13.0 kmh 30.20 in1022.7 mb - 0.00 in0.0 mm 0.00 in0.0 mm
07:45 AM 30.1°F-1.1°C 16.3°F-8.7°C 56% 4.6 mph S7.4 kmh S 8.1 mph13.0 kmh 30.20 in1022.7 mb - 0.00 in0.0 mm 0.00 in0.0 mm
07:40 AM 30.0°F-1.1°C 17.0°F-8.3°C 58% 4.6 mph S7.4 kmh S 6.9 mph11.1 kmh 30.20 in1022.7 mb - 0.00 in0.0 mm 0.00 in0.0 mm
07:35 AM 29.9°F-1.2°C 16.9°F-8.4°C 58% 3.5 mph S5.6 kmh S 4.6 mph7.4 kmh 30.20 in1022.7 mb - 0.00 in0.0 mm 0.00 in0.0 mm
07:30 AM 29.9°F-1.2°C 17.7°F-7.9°C 60% 3.5 mph S5.6 kmh S 5.8 mph9.3 kmh 30.19 in1022.4 mb - 0.00 in0.0 mm 0.00 in0.0 mm
07:25 AM 29.9°F-1.2°C 17.7°F-7.9°C 60% 5.8 mph S9.3 kmh S 11.5 mph18.5 kmh 30.19 in1022.4 mb - 0.00 in0.0 mm 0.00 in0.0 mm
07:20 AM 30.1°F-1.1°C 18.2°F-7.7°C 61% 4.6 mph S7.4 kmh S 9.2 mph14.8 kmh 30.19 in1022.4 mb - 0.00 in0.0 mm 0.00 in0.0 mm
07:15 AM 30.2°F-1.0°C 18.4°F-7.6°C 61% 5.8 mph SSE9.3 kmh SSE 9.2 mph14.8 kmh 30.19 in1022.4 mb - 0.00 in0.0 mm 0.00 in0.0 mm
07:10 AM 30.4°F-0.9°C 19.3°F-7.1°C 63% 5.8 mph S9.3 kmh S 6.9 mph11.1 kmh 30.19 in1022.4 mb - 0.00 in0.0 mm 0.00 in0.0 mm
07:00 AM 30.7°F-0.7°C 20.3°F-6.5°C 65% 8.1 mph S13.0 kmh S 10.4 mph16.7 kmh 30.19 in1022.4 mb - 0.00 in0.0 mm 0.00 in0.0 mm
06:55 AM 30.8°F-0.7°C 20.8°F-6.2°C 66% 6.9 mph SSE11.1 kmh SSE 9.2 mph14.8 kmh 30.19 in1022.4 mb - 0.00 in0.0 mm 0.00 in0.0 mm
06:50 AM 30.9°F-0.6°C 21.2°F-6.0°C 67% 8.1 mph S13.0 kmh S 13.8 mph22.2 kmh 30.18 in1022.0 mb - 0.00 in0.0 mm 0.00 in0.0 mm
06:45 AM 31.0°F-0.6°C 22.4°F-5.3°C 70% 6.9 mph S11.1 kmh S 10.4 mph16.7 kmh 30.18 in1022.0 mb - 0.00 in0.0 mm 0.00 in0.0 mm
06:40 AM 31.1°F-0.5°C 23.5°F-4.7°C 73% 8.1 mph S13.0 kmh S 10.4 mph16.7 kmh 30.18 in1022.0 mb - 0.00 in0.0 mm 0.00 in0.0 mm
06:35 AM 31.2°F-0.4°C 24.2°F-4.3°C 75% 6.9 mph S11.1 kmh S 10.4 mph16.7 kmh 30.18 in1022.0 mb - 0.00 in0.0 mm 0.00 in0.0 mm
06:30 AM 31.4°F-0.3°C 25.6°F-3.6°C 79% 5.8 mph SSE9.3 kmh SSE 8.1 mph13.0 kmh 30.18 in1022.0 mb - 0.00 in0.0 mm 0.00 in0.0 mm
06:25 AM 31.4°F-0.3°C 25.9°F-3.4°C 80% 5.8 mph S9.3 kmh S 9.2 mph14.8 kmh 30.19 in1022.4 mb - 0.00 in0.0 mm 0.00 in0.0 mm
06:20 AM 31.5°F-0.3°C 26.0°F-3.3°C 80% 5.8 mph SSE9.3 kmh SSE 8.1 mph13.0 kmh 30.19 in1022.4 mb - 0.00 in0.0 mm 0.00 in0.0 mm
06:15 AM 31.5°F-0.3°C 26.1°F-3.3°C 80% 8.1 mph SSE13.0 kmh SSE 11.5 mph18.5 kmh 30.19 in1022.4 mb - 0.00 in0.0 mm 0.00 in0.0 mm
06:10 AM 31.6°F-0.2°C 26.1°F-3.3°C 80% 6.9 mph S11.1 kmh S 11.5 mph18.5 kmh 30.19 in1022.4 mb - 0.00 in0.0 mm 0.00 in0.0 mm
06:00 AM 31.7°F-0.2°C 26.5°F-3.1°C 81% 5.8 mph S9.3 kmh S 9.2 mph14.8 kmh 30.18 in1022.0 mb - 0.00 in0.0 mm 0.00 in0.0 mm
05:55 AM 31.8°F-0.1°C 26.6°F-3.0°C 81% 8.1 mph SSE13.0 kmh SSE 11.5 mph18.5 kmh 30.18 in1022.0 mb - 0.00 in0.0 mm 0.00 in0.0 mm
05:50 AM 31.9°F-0.1°C 26.7°F-2.9°C 81% 6.9 mph S11.1 kmh S 10.4 mph16.7 kmh 30.18 in1022.0 mb - 0.00 in0.0 mm 0.00 in0.0 mm
05:45 AM 32.0°F0.0°C 26.8°F-2.9°C 81% 4.6 mph SSE7.4 kmh SSE 5.8 mph9.3 kmh 30.18 in1022.0 mb - 0.00 in0.0 mm 0.00 in0.0 mm
05:40 AM 32.1°F0.1°C 27.2°F-2.7°C 82% 4.6 mph S7.4 kmh S 4.6 mph7.4 kmh 30.17 in1021.7 mb - 0.00 in0.0 mm 0.00 in0.0 mm
05:35 AM 32.2°F0.1°C 27.3°F-2.6°C 82% 6.9 mph SSE11.1 kmh SSE 10.4 mph16.7 kmh 30.17 in1021.7 mb - 0.00 in0.0 mm 0.00 in0.0 mm
05:30 AM 32.2°F0.1°C 27.3°F-2.6°C 82% 5.8 mph S9.3 kmh S 6.9 mph11.1 kmh 30.17 in1021.7 mb - 0.00 in0.0 mm 0.00 in0.0 mm
05:25 AM 32.2°F0.1°C 27.3°F-2.6°C 82% 6.9 mph S11.1 kmh S 8.1 mph13.0 kmh 30.17 in1021.7 mb - 0.00 in0.0 mm 0.00 in0.0 mm
05:20 AM 32.3°F0.2°C 27.4°F-2.6°C 82% 6.9 mph SSE11.1 kmh SSE 10.4 mph16.7 kmh 30.17 in1021.7 mb - 0.00 in0.0 mm 0.00 in0.0 mm
05:15 AM 32.4°F0.2°C 27.5°F-2.5°C 82% 9.2 mph SSE14.8 kmh SSE 11.5 mph18.5 kmh 30.16 in1021.3 mb - 0.00 in0.0 mm 0.00 in0.0 mm
05:10 AM 32.5°F0.3°C 27.6°F-2.4°C 82% 6.9 mph SSE11.1 kmh SSE 6.9 mph11.1 kmh 30.16 in1021.3 mb - 0.00 in0.0 mm 0.00 in0.0 mm
05:00 AM 32.6°F0.3°C 28.0°F-2.2°C 83% 5.8 mph SSE9.3 kmh SSE 9.2 mph14.8 kmh 30.16 in1021.3 mb - 0.00 in0.0 mm 0.00 in0.0 mm
04:55 AM 32.7°F0.4°C 28.1°F-2.2°C 83% 4.6 mph S7.4 kmh S 6.9 mph11.1 kmh 30.15 in1021.0 mb - 0.00 in0.0 mm 0.00 in0.0 mm
04:50 AM 32.8°F0.4°C 28.2°F-2.1°C 83% 8.1 mph SSE13.0 kmh SSE 12.7 mph20.4 kmh 30.15 in1021.0 mb - 0.00 in0.0 mm 0.00 in0.0 mm
04:45 AM 32.9°F0.5°C 28.3°F-2.1°C 83% 5.8 mph S9.3 kmh S 6.9 mph11.1 kmh 30.15 in1021.0 mb - 0.00 in0.0 mm 0.00 in0.0 mm
04:40 AM 32.9°F0.5°C 28.0°F-2.2°C 82% 4.6 mph S7.4 kmh S 8.1 mph13.0 kmh 30.15 in1021.0 mb - 0.00 in0.0 mm 0.00 in0.0 mm
04:35 AM 32.9°F0.5°C 28.0°F-2.2°C 82% 5.8 mph SSE9.3 kmh SSE 10.4 mph16.7 kmh 30.15 in1021.0 mb - 0.00 in0.0 mm 0.00 in0.0 mm
04:30 AM 33.0°F0.6°C 28.1°F-2.2°C 82% 3.5 mph SSE5.6 kmh SSE 3.5 mph5.6 kmh 30.15 in1021.0 mb - 0.00 in0.0 mm 0.00 in0.0 mm
04:25 AM 33.0°F0.6°C 28.1°F-2.2°C 82% 5.8 mph SSE9.3 kmh SSE 8.1 mph13.0 kmh 30.15 in1021.0 mb - 0.00 in0.0 mm 0.00 in0.0 mm
04:20 AM 33.0°F0.6°C 28.1°F-2.2°C 82% 4.6 mph SSE7.4 kmh SSE 8.1 mph13.0 kmh 30.15 in1021.0 mb - 0.00 in0.0 mm 0.00 in0.0 mm
04:15 AM 33.0°F0.6°C 28.1°F-2.2°C 82% 3.5 mph S5.6 kmh S 4.6 mph7.4 kmh 30.14 in1020.7 mb - 0.00 in0.0 mm 0.00 in0.0 mm
04:10 AM 33.0°F0.6°C 28.1°F-2.2°C 82% 3.5 mph S5.6 kmh S 5.8 mph9.3 kmh 30.14 in1020.7 mb - 0.00 in0.0 mm 0.00 in0.0 mm
04:00 AM 33.1°F0.6°C 28.2°F-2.1°C 82% 4.6 mph SSE7.4 kmh SSE 6.9 mph11.1 kmh 30.14 in1020.7 mb - 0.00 in0.0 mm 0.00 in0.0 mm
03:55 AM 33.1°F0.6°C 28.2°F-2.1°C 82% 3.5 mph SSE5.6 kmh SSE 6.9 mph11.1 kmh 30.15 in1021.0 mb - 0.00 in0.0 mm 0.00 in0.0 mm
03:50 AM 33.2°F0.7°C 28.3°F-2.1°C 82% 4.6 mph SSE7.4 kmh SSE 6.9 mph11.1 kmh 30.14 in1020.7 mb - 0.00 in0.0 mm 0.00 in0.0 mm
03:45 AM 33.3°F0.7°C 28.4°F-2.0°C 82% 6.9 mph SE11.1 kmh SE 11.5 mph18.5 kmh 30.14 in1020.7 mb - 0.00 in0.0 mm 0.00 in0.0 mm
03:40 AM 33.3°F0.7°C 28.4°F-2.0°C 82% 5.8 mph SSE9.3 kmh SSE 8.1 mph13.0 kmh 30.15 in1021.0 mb - 0.00 in0.0 mm 0.00 in0.0 mm
03:35 AM 33.4°F0.8°C 28.5°F-1.9°C 82% 6.9 mph S11.1 kmh S 13.8 mph22.2 kmh 30.15 in1021.0 mb - 0.00 in0.0 mm 0.00 in0.0 mm
03:30 AM 33.5°F0.8°C 28.9°F-1.7°C 83% 6.9 mph SSE11.1 kmh SSE 8.1 mph13.0 kmh 30.15 in1021.0 mb - 0.00 in0.0 mm 0.00 in0.0 mm
03:25 AM 33.6°F0.9°C 29.0°F-1.7°C 83% 4.6 mph SSE7.4 kmh SSE 5.8 mph9.3 kmh 30.15 in1021.0 mb - 0.00 in0.0 mm 0.00 in0.0 mm
03:20 AM 33.7°F0.9°C 29.1°F-1.6°C 83% 3.5 mph S5.6 kmh S 6.9 mph11.1 kmh 30.15 in1021.0 mb - 0.00 in0.0 mm 0.00 in0.0 mm
03:15 AM 33.7°F0.9°C 28.8°F-1.8°C 82% 3.5 mph SE5.6 kmh SE 9.2 mph14.8 kmh 30.15 in1021.0 mb - 0.00 in0.0 mm 0.00 in0.0 mm
03:10 AM 33.8°F1.0°C 28.9°F-1.7°C 82% 4.6 mph SE7.4 kmh SE 8.1 mph13.0 kmh 30.15 in1021.0 mb - 0.00 in0.0 mm 0.00 in0.0 mm
03:00 AM 33.9°F1.1°C 28.7°F-1.8°C 81% 5.8 mph SE9.3 kmh SE 9.2 mph14.8 kmh 30.14 in1020.7 mb - 0.00 in0.0 mm 0.00 in0.0 mm
02:55 AM 34.0°F1.1°C 28.8°F-1.8°C 81% 3.5 mph S5.6 kmh S 5.8 mph9.3 kmh 30.14 in1020.7 mb - 0.00 in0.0 mm 0.00 in0.0 mm
02:50 AM 34.1°F1.2°C 28.6°F-1.9°C 80% 5.8 mph SE9.3 kmh SE 6.9 mph11.1 kmh 30.14 in1020.7 mb - 0.00 in0.0 mm 0.00 in0.0 mm
02:45 AM 34.3°F1.3°C 28.8°F-1.8°C 80% 4.6 mph SSE7.4 kmh SSE 8.1 mph13.0 kmh 30.14 in1020.7 mb - 0.00 in0.0 mm 0.00 in0.0 mm
02:40 AM 34.4°F1.3°C 28.9°F-1.7°C 80% 4.6 mph SSE7.4 kmh SSE 6.9 mph11.1 kmh 30.14 in1020.7 mb - 0.00 in0.0 mm 0.00 in0.0 mm
02:35 AM 34.5°F1.4°C 28.7°F-1.8°C 79% 4.6 mph SE7.4 kmh SE 6.9 mph11.1 kmh 30.14 in1020.7 mb - 0.00 in0.0 mm 0.00 in0.0 mm
02:30 AM 34.6°F1.4°C 28.8°F-1.8°C 79% 4.6 mph S7.4 kmh S 6.9 mph11.1 kmh 30.14 in1020.7 mb - 0.00 in0.0 mm 0.00 in0.0 mm
02:25 AM 34.7°F1.5°C 28.8°F-1.8°C 79% 4.6 mph S7.4 kmh S 8.1 mph13.0 kmh 30.14 in1020.7 mb - 0.00 in0.0 mm 0.00 in0.0 mm
02:20 AM 34.7°F1.5°C 28.9°F-1.7°C 79% 6.9 mph SE11.1 kmh SE 10.4 mph16.7 kmh 30.14 in1020.7 mb - 0.00 in0.0 mm 0.00 in0.0 mm
02:15 AM 34.8°F1.6°C 28.6°F-1.9°C 78% 3.5 mph SE5.6 kmh SE 6.9 mph11.1 kmh 30.14 in1020.7 mb - 0.00 in0.0 mm 0.00 in0.0 mm
02:10 AM 35.0°F1.7°C 28.8°F-1.8°C 78% 4.6 mph SSE7.4 kmh SSE 6.9 mph11.1 kmh 30.14 in1020.7 mb - 0.00 in0.0 mm 0.00 in0.0 mm
02:00 AM 35.2°F1.8°C 28.7°F-1.8°C 77% 6.9 mph SE11.1 kmh SE 9.2 mph14.8 kmh 30.13 in1020.3 mb - 0.00 in0.0 mm 0.00 in0.0 mm
01:55 AM 35.3°F1.8°C 28.8°F-1.8°C 77% 5.8 mph SE9.3 kmh SE 10.4 mph16.7 kmh 30.13 in1020.3 mb - 0.00 in0.0 mm 0.00 in0.0 mm
01:50 AM 35.4°F1.9°C 29.2°F-1.6°C 78% 4.6 mph SSE7.4 kmh SSE 6.9 mph11.1 kmh 30.13 in1020.3 mb - 0.00 in0.0 mm 0.00 in0.0 mm
01:45 AM 35.5°F1.9°C 29.6°F-1.3°C 79% 4.6 mph SE7.4 kmh SE 9.2 mph14.8 kmh 30.13 in1020.3 mb - 0.00 in0.0 mm 0.00 in0.0 mm
01:40 AM 35.6°F2.0°C 29.7°F-1.3°C 79% 3.5 mph SE5.6 kmh SE 5.8 mph9.3 kmh 30.13 in1020.3 mb - 0.00 in0.0 mm 0.00 in0.0 mm
01:35 AM 35.7°F2.1°C 29.8°F-1.2°C 79% 4.6 mph SSE7.4 kmh SSE 4.6 mph7.4 kmh 30.13 in1020.3 mb - 0.00 in0.0 mm 0.00 in0.0 mm
01:30 AM 35.8°F2.1°C 29.9°F-1.2°C 79% 6.9 mph SSE11.1 kmh SSE 6.9 mph11.1 kmh 30.13 in1020.3 mb - 0.00 in0.0 mm 0.00 in0.0 mm
01:25 AM 36.0°F2.2°C 30.4°F-0.9°C 80% 4.6 mph SE7.4 kmh SE 9.2 mph14.8 kmh 30.13 in1020.3 mb - 0.00 in0.0 mm 0.00 in0.0 mm
01:20 AM 36.0°F2.2°C 30.4°F-0.9°C 80% 4.6 mph SSE7.4 kmh SSE 5.8 mph9.3 kmh 30.13 in1020.3 mb - 0.00 in0.0 mm 0.00 in0.0 mm
01:15 AM 36.1°F2.3°C 30.5°F-0.8°C 80% 3.5 mph S5.6 kmh S 3.5 mph5.6 kmh 30.13 in1020.3 mb - 0.00 in0.0 mm 0.00 in0.0 mm
01:10 AM 36.1°F2.3°C 30.2°F-1.0°C 79% 2.3 mph SSE3.7 kmh SSE 3.5 mph5.6 kmh 30.13 in1020.3 mb - 0.00 in0.0 mm 0.00 in0.0 mm
01:00 AM 36.2°F2.3°C 30.0°F-1.1°C 78% 2.3 mph SSE3.7 kmh SSE 3.5 mph5.6 kmh 30.13 in1020.3 mb - 0.00 in0.0 mm 0.00 in0.0 mm
12:55 AM 36.3°F2.4°C 30.1°F-1.1°C 78% 2.3 mph S3.7 kmh S 3.5 mph5.6 kmh 30.13 in1020.3 mb - 0.00 in0.0 mm 0.00 in0.0 mm
12:50 AM 36.3°F2.4°C 30.1°F-1.1°C 78% 2.3 mph S3.7 kmh S 3.5 mph5.6 kmh 30.12 in1020.0 mb - 0.00 in0.0 mm 0.00 in0.0 mm
12:45 AM 36.4°F2.4°C 30.2°F-1.0°C 78% 2.3 mph S3.7 kmh S 3.5 mph5.6 kmh 30.12 in1020.0 mb - 0.00 in0.0 mm 0.00 in0.0 mm
12:40 AM 36.3°F2.4°C 30.1°F-1.1°C 78% 4.6 mph S7.4 kmh S 6.9 mph11.1 kmh 30.12 in1020.0 mb - 0.00 in0.0 mm 0.00 in0.0 mm
12:35 AM 36.4°F2.4°C 29.9°F-1.2°C 77% 2.3 mph SSE3.7 kmh SSE 3.5 mph5.6 kmh 30.12 in1020.0 mb - 0.00 in0.0 mm 0.00 in0.0 mm
12:30 AM 36.5°F2.5°C 30.0°F-1.1°C 77% 3.5 mph SSE5.6 kmh SSE 3.5 mph5.6 kmh 30.12 in1020.0 mb - 0.00 in0.0 mm 0.00 in0.0 mm
12:25 AM 36.6°F2.6°C 30.1°F-1.1°C 77% 3.5 mph SE5.6 kmh SE 4.6 mph7.4 kmh 30.12 in1020.0 mb - 0.00 in0.0 mm 0.00 in0.0 mm
12:20 AM 36.7°F2.6°C 30.2°F-1.0°C 77% 4.6 mph SE7.4 kmh SE 9.2 mph14.8 kmh 30.12 in1020.0 mb - 0.00 in0.0 mm 0.00 in0.0 mm
12:15 AM 36.6°F2.6°C 30.1°F-1.1°C 77% 3.5 mph ESE5.6 kmh ESE 3.5 mph5.6 kmh 30.11 in1019.6 mb - 0.00 in0.0 mm 0.00 in0.0 mm
12:10 AM 36.5°F2.5°C 30.3°F-0.9°C 78% 3.5 mph SE5.6 kmh SE 5.8 mph9.3 kmh 30.11 in1019.6 mb - 0.00 in0.0 mm 0.00 in0.0 mm
12:00 AM 35.8°F2.1°C 29.9°F-1.2°C 79% 3.5 mph SE5.6 kmh SE 3.5 mph5.6 kmh 30.11 in1019.6 mb - 0.00 in0.0 mm 0.00 in0.0 mm